Cedar City Regional Airport Cedar City US
ICAO: KCDC
IATA: CDC
Category: Medium
Scheduled Services: Yes

Elevation: 5622 ft
TransAlt. 18000 ft.

Airport Communications:
ASOS:119.025
CTAF:123.6
RDO:122.2
UNICOM:122.95

KCDC Zoom In..

If you have problems with the map follow the link
https://www.worldairports.se/pages/airport.php?
ICAO=KCDC

Runways:

(A) RW 02 length 8653 ft width 150 ft
---- / hdg 20

(B) RW 08 length 4822 ft width 60 ft
---- / hdg 83

(C) RW 20 length 8653 ft width 150 ft
ILS 110.10 / hdg 200

(D) RW 26 length 4822 ft width 60 ft
---- / hdg 263

Location; KCDC
Day. 22 / Time. 16.53 Zulu
* Altimeter: 29.82
* Temperature: -06° c. -21.2°f.
* Wind from: 020° Speed 12 kn.
Dewpoint: -09° c.
Visibility: 8 Statute Miles.
Clouds: Broken 3000 ft.
Clouds: Overcast 3600 ft.
Conditions: Light Snow.

KCDC 221653Z AUTO 02012KT 8SM -SN BKN030 OVC036 M06/M09 A2982 RMK AO2 SNE02B09 SLP132 P0000 T10611094


Wind From 020°
Speed 12 kn.

 
 
jpsmedia.com for Web Design worldairports.se 2019   terms of use